createdAt,value
2019-01-18T07:09:34.878Z,33.70
2019-01-18T07:12:03.672Z,27.80
2019-01-18T07:14:32.830Z,35.40
2019-01-18T07:17:02.093Z,36.50
2019-01-18T07:19:32.328Z,34.40
2019-01-18T07:22:01.193Z,33.50
2019-01-18T07:24:34.125Z,33.30
2019-01-18T07:27:05.044Z,33.30
2019-01-18T07:29:34.110Z,33.00
2019-01-18T07:32:04.850Z,32.50
2019-01-18T07:34:33.838Z,32.40
2019-01-18T07:37:03.430Z,32.20
2019-01-18T07:39:32.916Z,32.10
2019-01-18T07:42:01.818Z,31.90
2019-01-18T07:44:30.947Z,32.40
2019-01-18T07:47:00.211Z,31.70
2019-01-18T07:49:29.294Z,31.70
2019-01-18T07:51:58.286Z,32.20
2019-01-18T07:54:27.292Z,32.50
2019-01-18T07:56:56.403Z,32.20
2019-01-18T07:59:25.209Z,32.40
2019-01-18T08:01:54.257Z,32.20
2019-01-18T08:04:23.404Z,32.50
2019-01-18T08:06:52.194Z,32.50
2019-01-18T08:09:21.173Z,33.10
2019-01-18T08:11:50.176Z,32.70
2019-01-18T08:14:19.004Z,32.60
2019-01-18T08:16:47.937Z,32.80
2019-01-18T08:19:17.492Z,32.70
2019-01-18T08:21:46.677Z,32.90
2019-01-18T08:24:15.693Z,33.40
2019-01-18T08:26:46.019Z,33.00
2019-01-18T08:29:16.136Z,33.20
2019-01-18T08:31:45.458Z,33.70
2019-01-18T08:34:15.366Z,33.70
2019-01-18T08:36:44.482Z,33.40
2019-01-18T08:39:13.609Z,33.50
2019-01-18T08:41:42.884Z,33.60
2019-01-18T08:44:11.812Z,33.90
2019-01-18T08:46:41.841Z,33.00
2019-01-18T08:49:11.707Z,33.00
2019-01-18T08:51:40.592Z,33.10
2019-01-18T08:54:10.409Z,33.20
2019-01-18T08:56:40.778Z,33.30
2019-01-18T08:59:11.396Z,33.70
2019-01-18T09:01:40.564Z,33.60
2019-01-18T09:04:09.527Z,33.60
2019-01-18T09:06:40.520Z,33.60
2019-01-18T09:09:10.713Z,33.40
2019-01-18T09:11:40.690Z,33.50
2019-01-18T09:14:10.173Z,33.80
2019-01-18T09:16:39.727Z,34.10
2019-01-18T09:19:09.009Z,33.80
2019-01-18T09:21:38.156Z,33.70
2019-01-18T09:24:07.860Z,33.70
2019-01-18T09:26:37.686Z,34.30
2019-01-18T09:29:10.279Z,33.90
2019-01-18T09:31:42.686Z,33.90
2019-01-18T09:34:11.692Z,33.70
2019-01-18T09:36:43.658Z,34.00
2019-01-18T09:39:13.262Z,33.70
2019-01-18T09:41:42.264Z,33.80
2019-01-18T09:44:11.369Z,33.70
2019-01-18T09:46:39.916Z,33.90
2019-01-18T09:49:13.283Z,33.80
2019-01-18T09:51:42.951Z,34.20
2019-01-18T09:54:11.776Z,34.00
2019-01-18T09:56:40.745Z,34.30
2019-01-18T09:59:11.327Z,34.30
2019-01-18T10:01:41.761Z,34.40
2019-01-18T10:04:11.290Z,34.30
2019-01-18T10:06:41.397Z,34.40
2019-01-18T10:09:11.680Z,34.20
2019-01-18T10:11:40.945Z,34.60
2019-01-18T10:14:12.443Z,34.50
2019-01-18T10:16:42.567Z,34.30
2019-01-18T10:19:12.011Z,34.30
2019-01-18T10:21:43.130Z,34.30
2019-01-18T10:24:13.247Z,34.20
2019-01-18T10:26:42.892Z,34.20
2019-01-18T10:29:12.879Z,34.20
2019-01-18T10:31:41.766Z,33.90
2019-01-18T10:34:11.924Z,34.10
2019-01-18T10:36:41.963Z,34.40
2019-01-18T10:39:11.250Z,34.10
2019-01-18T10:41:40.241Z,34.30
2019-01-18T10:44:10.587Z,34.60
2019-01-18T10:46:40.005Z,34.50
2019-01-18T10:49:08.804Z,34.50
2019-01-18T10:51:38.569Z,34.80
2019-01-18T10:54:08.653Z,34.50
2019-01-18T10:56:37.916Z,34.60
2019-01-18T10:59:06.952Z,34.70
2019-01-18T11:01:42.224Z,34.70
2019-01-18T12:25:27.716Z,34.70
2019-01-18T12:27:56.914Z,34.30
2019-01-18T12:30:28.557Z,34.60
2019-01-18T12:32:59.791Z,34.30
2019-01-18T12:35:30.725Z,34.30
2019-01-18T12:38:00.620Z,34.90
2019-01-18T12:40:29.950Z,34.90
2019-01-18T12:43:00.073Z,34.50
2019-01-18T12:45:29.576Z,33.90
2019-01-18T12:47:58.668Z,33.70
2019-01-18T12:50:31.559Z,34.40
2019-01-18T12:53:00.680Z,33.90
2019-01-18T12:55:30.906Z,33.80
2019-01-18T12:58:00.996Z,33.50
2019-01-18T13:00:31.687Z,33.70
2019-01-18T13:03:04.305Z,33.90
2019-01-18T13:05:38.828Z,34.20
2019-01-18T13:08:08.460Z,34.20
2019-01-18T13:10:38.600Z,34.30
2019-01-18T13:13:07.995Z,34.20
2019-01-18T13:15:40.204Z,34.00
2019-01-18T13:18:09.099Z,34.30
2019-01-18T13:20:38.194Z,34.10
2019-01-18T13:23:07.007Z,34.50
2019-01-18T13:25:37.409Z,34.50
2019-01-18T13:28:06.206Z,34.40
2019-01-18T13:30:37.775Z,34.70
2019-01-18T13:33:06.956Z,34.80
2019-01-18T13:35:36.646Z,34.90
2019-01-18T13:38:06.591Z,34.50
2019-01-18T13:40:35.691Z,35.10
2019-01-18T13:43:04.753Z,35.70
2019-01-18T13:45:33.461Z,35.10
2019-01-18T13:48:02.412Z,35.30
2019-01-18T13:50:35.836Z,35.10
2019-01-18T13:53:05.296Z,35.00
2019-01-18T13:55:34.918Z,34.80
2019-01-18T13:58:04.790Z,34.70
2019-01-18T14:00:34.422Z,35.00
2019-01-18T14:03:03.460Z,34.80
2019-01-18T14:05:32.407Z,35.50
2019-01-18T14:08:02.256Z,35.00
2019-01-18T14:10:33.294Z,34.80
2019-01-18T14:13:03.357Z,35.10
2019-01-18T14:15:33.020Z,34.70
2019-01-18T14:18:02.320Z,34.40
2019-01-18T14:20:31.224Z,34.50
2019-01-18T14:23:00.895Z,34.50
2019-01-18T14:25:30.798Z,34.40
2019-01-18T14:28:00.780Z,34.70
2019-01-18T14:30:30.395Z,34.70
2019-01-18T14:32:59.838Z,34.60
2019-01-18T14:35:29.786Z,34.80
2019-01-18T14:37:58.941Z,34.10
2019-01-18T14:40:28.147Z,34.50
2019-01-18T14:42:56.966Z,34.10
2019-01-18T14:45:29.561Z,34.00
2019-01-18T14:47:58.520Z,34.70
2019-01-18T14:50:27.718Z,34.30
2019-01-18T14:52:56.526Z,34.20
2019-01-18T14:55:26.199Z,34.50
2019-01-18T14:57:55.591Z,34.70
2019-01-18T15:00:29.842Z,34.40
2019-01-18T15:03:02.565Z,34.50
2019-01-18T15:05:31.117Z,34.80
2019-01-18T15:08:02.045Z,34.90
2019-01-18T15:10:32.036Z,35.50
2019-01-18T15:13:07.599Z,35.50
2019-01-18T15:15:37.652Z,35.50
2019-01-18T15:18:08.364Z,35.80
2019-01-18T15:20:38.023Z,35.80
2019-01-18T15:23:07.953Z,35.90
2019-01-18T15:25:37.711Z,35.70
2019-01-18T15:28:07.924Z,35.80
2019-01-18T15:30:37.379Z,35.20
2019-01-18T15:33:09.370Z,34.50
2019-01-18T15:35:42.242Z,35.10
2019-01-18T15:38:10.270Z,35.40
2019-01-18T15:40:42.886Z,35.90
2019-01-18T15:43:13.088Z,34.90
2019-01-18T15:45:42.813Z,34.60
2019-01-18T15:48:12.661Z,34.60
2019-01-18T15:50:42.499Z,34.20
2019-01-18T15:53:12.684Z,34.50
2019-01-18T15:55:42.755Z,34.90
2019-01-18T15:58:12.178Z,34.50
2019-01-18T16:00:42.874Z,34.40
2019-01-18T16:03:16.085Z,34.30
2019-01-18T16:05:42.920Z,34.00
2019-01-18T16:08:12.233Z,34.20
2019-01-18T16:10:41.145Z,35.10
2019-01-18T16:13:10.708Z,34.90
2019-01-18T16:15:43.986Z,34.50
2019-01-18T16:18:16.531Z,34.50
2019-01-18T16:20:46.303Z,34.90
2019-01-18T16:23:17.429Z,34.70
2019-01-18T16:25:47.401Z,34.90
2019-01-18T16:28:17.814Z,34.90
2019-01-18T16:30:46.850Z,34.50
2019-01-18T16:33:23.157Z,34.50
2019-01-18T16:35:45.990Z,35.20
2019-01-18T16:38:17.987Z,34.80
2019-01-18T16:40:47.877Z,34.90
2019-01-18T16:43:21.559Z,34.00
2019-01-18T16:45:51.500Z,34.40
2019-01-18T16:48:21.670Z,34.50
2019-01-18T16:50:51.432Z,34.70
2019-01-18T16:53:20.516Z,34.60
2019-01-18T16:55:50.297Z,34.70
2019-01-18T16:58:22.420Z,34.70
2019-01-18T17:00:55.168Z,35.50
2019-01-18T17:03:30.333Z,34.90
